VOE86BR LFST-LPPR
Flight info
| Callsign | VOE86BR |
|---|---|
| Flight time | N/A |
| Altitude | 31000 |
| Route | AMDOQ DCT MOROK DCT GILIR/N0441F370 DCT NINTU DCT MEBAK DCT REPSI DCT LERGA DCT MINSO DCT NARAK DCT AGN DCT LATEK DCT PPN DCT MIRPO DCT DGO DCT NEA DCT ZMR DCT ADORO DCT CANAR DCT INKIT |
| Aircraft | A319/M-SDFGIJ1RWY/LB1 |
Departure
| Time | 2026-05-07 18:59 |
|---|---|
| Airport | Strasbourg Airport (LFST) |
Arrival
| Time | N/A |
|---|---|
| Airport | Francisco de Sá Carneiro Airport (LPPR) |
| Time | Latitude | Longitude | Altitude | Speed | Heading |
|---|---|---|---|---|---|
| 2026-05-07 18:37 | 48.54362 | 7.62793 | 506 ft | 0 kts | 3° |
| 2026-05-07 18:50 | 48.54359 | 7.62793 | 506 ft | 2 kts | 2° |
| 2026-05-07 18:51 | 48.54341 | 7.62793 | 506 ft | 3 kts | 351° |
| 2026-05-07 18:51 | 48.54322 | 7.62801 | 506 ft | 3 kts | 328° |
| 2026-05-07 18:51 | 48.54309 | 7.62819 | 506 ft | 3 kts | 293° |
| 2026-05-07 18:51 | 48.54305 | 7.62845 | 506 ft | 3 kts | 250° |
| 2026-05-07 18:52 | 48.54311 | 7.62861 | 506 ft | 1 kts | 230° |
| 2026-05-07 18:52 | 48.54313 | 7.62865 | 506 ft | 0 kts | 230° |
| 2026-05-07 18:54 | 48.54305 | 7.62854 | 506 ft | 4 kts | 219° |
| 2026-05-07 18:55 | 48.54263 | 7.62846 | 506 ft | 9 kts | 168° |
| 2026-05-07 18:55 | 48.54220 | 7.62881 | 506 ft | 12 kts | 144° |
| 2026-05-07 18:55 | 48.54128 | 7.62914 | 506 ft | 17 kts | 205° |
| 2026-05-07 18:55 | 48.54032 | 7.62771 | 506 ft | 21 kts | 228° |
| 2026-05-07 18:56 | 48.53930 | 7.62598 | 506 ft | 22 kts | 228° |
| 2026-05-07 18:56 | 48.53825 | 7.62417 | 506 ft | 23 kts | 227° |
| 2026-05-07 18:56 | 48.53716 | 7.62230 | 506 ft | 24 kts | 229° |
| 2026-05-07 18:56 | 48.53604 | 7.62037 | 506 ft | 25 kts | 229° |
| 2026-05-07 18:57 | 48.53488 | 7.61839 | 506 ft | 25 kts | 228° |
| 2026-05-07 18:57 | 48.53370 | 7.61637 | 506 ft | 26 kts | 229° |
| 2026-05-07 18:57 | 48.53237 | 7.61491 | 506 ft | 23 kts | 171° |
| 2026-05-07 18:57 | 48.53168 | 7.61677 | 505 ft | 23 kts | 66° |
| 2026-05-07 18:58 | 48.53244 | 7.61818 | 504 ft | 0 kts | 49° |
| 2026-05-07 18:58 | 48.53319 | 7.61946 | 505 ft | 53 kts | 48° |
| 2026-05-07 18:58 | 48.53749 | 7.62685 | 504 ft | 131 kts | 49° |
| 2026-05-07 18:59 | 48.54450 | 7.63889 | 828 ft | 160 kts | 49° |
| 2026-05-07 18:59 | 48.55189 | 7.65195 | 1592 ft | 163 kts | 48° |
| 2026-05-07 18:59 | 48.55924 | 7.66499 | 2362 ft | 163 kts | 49° |
| 2026-05-07 18:59 | 48.56701 | 7.67885 | 2861 ft | 184 kts | 49° |
| 2026-05-07 19:00 | 48.57580 | 7.69452 | 3332 ft | 207 kts | 49° |
| 2026-05-07 19:00 | 48.58523 | 7.71136 | 4212 ft | 213 kts | 48° |
| 2026-05-07 19:00 | 48.59647 | 7.72609 | 5104 ft | 217 kts | 25° |
| 2026-05-07 19:00 | 48.61118 | 7.73089 | 5998 ft | 220 kts | 354° |
| 2026-05-07 19:01 | 48.62570 | 7.72401 | 6885 ft | 221 kts | 325° |
| 2026-05-07 19:01 | 48.63618 | 7.70724 | 7766 ft | 223 kts | 296° |
| 2026-05-07 19:01 | 48.63986 | 7.68463 | 8656 ft | 225 kts | 266° |
| 2026-05-07 19:01 | 48.63559 | 7.66205 | 9581 ft | 227 kts | 239° |
| 2026-05-07 19:02 | 48.62684 | 7.64199 | 10473 ft | 230 kts | 236° |
| 2026-05-07 19:02 | 48.61791 | 7.62178 | 11348 ft | 233 kts | 236° |
| 2026-05-07 19:02 | 48.60944 | 7.60084 | 12212 ft | 236 kts | 240° |
| 2026-05-07 19:02 | 48.60142 | 7.57904 | 13094 ft | 239 kts | 241° |
| 2026-05-07 19:03 | 48.59318 | 7.55698 | 13969 ft | 243 kts | 240° |
| 2026-05-07 19:03 | 48.58457 | 7.53490 | 14776 ft | 245 kts | 240° |
| 2026-05-07 19:03 | 48.57810 | 7.51031 | 15234 ft | 265 kts | 259° |
| 2026-05-07 19:03 | 48.57836 | 7.48131 | 15564 ft | 290 kts | 280° |
| 2026-05-07 19:04 | 48.58300 | 7.45035 | 15831 ft | 315 kts | 284° |
| 2026-05-07 19:04 | 48.59253 | 7.41929 | 16052 ft | 341 kts | 303° |
| 2026-05-07 19:04 | 48.60827 | 7.39082 | 16219 ft | 365 kts | 310° |
| 2026-05-07 19:04 | 48.62569 | 7.36120 | 16373 ft | 386 kts | 310° |
| 2026-05-07 19:05 | 48.64366 | 7.33027 | 16855 ft | 395 kts | 307° |
| 2026-05-07 19:05 | 48.65640 | 7.29300 | 17490 ft | 397 kts | 284° |
| 2026-05-07 19:05 | 48.65801 | 7.25149 | 18156 ft | 399 kts | 261° |
| 2026-05-07 19:05 | 48.64838 | 7.21227 | 18761 ft | 403 kts | 238° |
| 2026-05-07 19:06 | 48.62895 | 7.18174 | 19336 ft | 408 kts | 215° |
| 2026-05-07 19:06 | 48.57460 | 7.15494 | 20469 ft | 418 kts | 195° |
| 2026-05-07 19:06 | 48.54734 | 7.13976 | 20989 ft | 418 kts | 210° |
| 2026-05-07 19:07 | 48.52428 | 7.11342 | 21506 ft | 418 kts | 225° |
| 2026-05-07 19:07 | 48.50357 | 7.08227 | 22044 ft | 421 kts | 226° |
| 2026-05-07 19:07 | 48.48304 | 7.05069 | 22563 ft | 424 kts | 226° |
| 2026-05-07 19:07 | 48.46225 | 7.01896 | 23069 ft | 427 kts | 226° |
| 2026-05-07 19:08 | 48.44108 | 6.98732 | 23569 ft | 430 kts | 225° |
| 2026-05-07 19:08 | 48.41959 | 6.95592 | 24005 ft | 432 kts | 225° |
| 2026-05-07 19:08 | 48.39783 | 6.92462 | 24422 ft | 435 kts | 225° |
| 2026-05-07 19:08 | 48.37585 | 6.89325 | 24831 ft | 437 kts | 224° |
| 2026-05-07 19:09 | 48.35362 | 6.86163 | 25231 ft | 439 kts | 224° |
| 2026-05-07 19:09 | 48.33143 | 6.83003 | 25609 ft | 442 kts | 224° |
| 2026-05-07 19:09 | 48.30910 | 6.79814 | 25981 ft | 444 kts | 225° |
| 2026-05-07 19:09 | 48.28661 | 6.76598 | 26350 ft | 447 kts | 225° |
| 2026-05-07 19:10 | 48.26272 | 6.73598 | 26702 ft | 451 kts | 217° |
| 2026-05-07 19:10 | 48.23567 | 6.71205 | 27038 ft | 455 kts | 207° |
| 2026-05-07 19:10 | 48.20597 | 6.69505 | 27382 ft | 460 kts | 198° |
| 2026-05-07 19:10 | 48.17443 | 6.68570 | 27714 ft | 465 kts | 188° |
| 2026-05-07 19:11 | 48.14200 | 6.68360 | 28145 ft | 467 kts | 183° |
| 2026-05-07 19:11 | 48.10956 | 6.68257 | 28647 ft | 466 kts | 184° |
| 2026-05-07 19:11 | 48.07720 | 6.68141 | 29152 ft | 465 kts | 184° |
| 2026-05-07 19:11 | 48.04490 | 6.68016 | 29655 ft | 464 kts | 184° |
| 2026-05-07 19:12 | 48.01269 | 6.67884 | 30152 ft | 463 kts | 184° |
| 2026-05-07 19:12 | 47.98058 | 6.67751 | 30610 ft | 461 kts | 184° |
| 2026-05-07 19:12 | 47.94852 | 6.67620 | 31075 ft | 460 kts | 184° |
| 2026-05-07 19:12 | 47.91660 | 6.67494 | 31539 ft | 458 kts | 184° |
| 2026-05-07 19:13 | 47.88435 | 6.67372 | 32012 ft | 457 kts | 184° |
| 2026-05-07 19:13 | 47.85308 | 6.67256 | 32480 ft | 455 kts | 185° |
| 2026-05-07 19:13 | 47.82145 | 6.67139 | 32953 ft | 454 kts | 185° |
| 2026-05-07 19:13 | 47.78997 | 6.67023 | 33411 ft | 452 kts | 185° |
| 2026-05-07 19:14 | 47.75815 | 6.66903 | 33886 ft | 451 kts | 185° |
| 2026-05-07 19:14 | 47.72687 | 6.66784 | 34307 ft | 449 kts | 185° |
| 2026-05-07 19:14 | 47.69568 | 6.66668 | 34684 ft | 449 kts | 185° |
| 2026-05-07 19:14 | 47.66445 | 6.66554 | 35059 ft | 449 kts | 185° |
| 2026-05-07 19:15 | 47.63323 | 6.66440 | 35420 ft | 449 kts | 185° |
| 2026-05-07 19:15 | 47.60198 | 6.66326 | 35751 ft | 448 kts | 185° |
| 2026-05-07 19:15 | 47.57079 | 6.66211 | 36088 ft | 448 kts | 185° |
| 2026-05-07 19:15 | 47.53973 | 6.66092 | 36421 ft | 448 kts | 185° |
| 2026-05-07 19:16 | 47.50852 | 6.65972 | 36746 ft | 448 kts | 185° |
| 2026-05-07 19:16 | 47.47745 | 6.65852 | 36985 ft | 448 kts | 185° |
| 2026-05-07 19:16 | 47.41601 | 6.64812 | 37033 ft | 441 kts | 199° |
| 2026-05-07 19:17 | 47.36155 | 6.61006 | 37040 ft | 432 kts | 218° |
| 2026-05-07 19:17 | 47.31556 | 6.55354 | 37060 ft | 430 kts | 223° |
| 2026-05-07 19:18 | 47.27005 | 6.49642 | 37062 ft | 430 kts | 223° |
| 2026-05-07 19:18 | 47.22437 | 6.43956 | 37060 ft | 430 kts | 223° |
| 2026-05-07 19:19 | 47.17876 | 6.38275 | 37053 ft | 430 kts | 223° |
| 2026-05-07 19:19 | 47.13325 | 6.32599 | 37064 ft | 429 kts | 223° |
| 2026-05-07 19:20 | 47.08760 | 6.26931 | 37069 ft | 429 kts | 223° |
| 2026-05-07 19:20 | 47.03817 | 6.22004 | 37061 ft | 433 kts | 210° |
| 2026-05-07 19:21 | 46.98425 | 6.17916 | 37054 ft | 433 kts | 210° |
| 2026-05-07 19:21 | 46.93115 | 6.13875 | 37074 ft | 433 kts | 210° |
| 2026-05-07 19:22 | 46.87775 | 6.09809 | 37063 ft | 433 kts | 210° |
| 2026-05-07 19:22 | 46.82383 | 6.05723 | 37062 ft | 433 kts | 210° |
| 2026-05-07 19:23 | 46.77037 | 6.01691 | 37046 ft | 433 kts | 210° |
| 2026-05-07 19:23 | 46.71675 | 5.97661 | 37059 ft | 433 kts | 210° |
| 2026-05-07 19:24 | 46.66334 | 5.93647 | 37052 ft | 433 kts | 210° |
| 2026-05-07 19:24 | 46.60984 | 5.89631 | 37053 ft | 433 kts | 210° |
| 2026-05-07 19:25 | 46.55632 | 5.85627 | 37043 ft | 433 kts | 210° |
| 2026-05-07 19:25 | 46.50274 | 5.81627 | 37050 ft | 432 kts | 210° |
| 2026-05-07 19:26 | 46.43209 | 5.75394 | 37039 ft | 426 kts | 227° |
| 2026-05-07 19:26 | 46.41155 | 5.72244 | 37028 ft | 425 kts | 229° |
| 2026-05-07 19:27 | 46.37148 | 5.66015 | 37033 ft | 425 kts | 229° |
| 2026-05-07 19:27 | 46.33089 | 5.59691 | 37035 ft | 425 kts | 229° |
| 2026-05-07 19:28 | 46.29053 | 5.53440 | 37030 ft | 426 kts | 228° |
| 2026-05-07 19:28 | 46.25008 | 5.47195 | 37023 ft | 425 kts | 228° |
| 2026-05-07 19:29 | 46.20954 | 5.40957 | 37014 ft | 426 kts | 228° |
| 2026-05-07 19:29 | 46.16909 | 5.34740 | 37020 ft | 425 kts | 228° |
| 2026-05-07 19:30 | 46.12848 | 5.28514 | 37027 ft | 426 kts | 228° |
| 2026-05-07 19:30 | 46.08786 | 5.22304 | 37019 ft | 425 kts | 228° |
| 2026-05-07 19:31 | 46.04726 | 5.16110 | 36996 ft | 425 kts | 228° |
| 2026-05-07 19:31 | 46.00660 | 5.09923 | 37009 ft | 426 kts | 228° |
| 2026-05-07 19:32 | 45.96562 | 5.03697 | 37014 ft | 426 kts | 228° |
| 2026-05-07 19:32 | 45.92581 | 4.97677 | 37009 ft | 426 kts | 228° |
| 2026-05-07 19:33 | 45.88472 | 4.91467 | 37008 ft | 426 kts | 228° |
| 2026-05-07 19:33 | 45.84387 | 4.85285 | 37000 ft | 426 kts | 227° |
| 2026-05-07 19:34 | 45.80303 | 4.79134 | 37003 ft | 426 kts | 227° |
| 2026-05-07 19:34 | 45.76211 | 4.73000 | 37008 ft | 426 kts | 227° |
| 2026-05-07 19:35 | 45.72112 | 4.66867 | 37041 ft | 426 kts | 227° |
| 2026-05-07 19:35 | 45.68483 | 4.60200 | 37038 ft | 425 kts | 236° |
| 2026-05-07 19:36 | 45.65074 | 4.53293 | 37030 ft | 425 kts | 235° |
| 2026-05-07 19:36 | 45.61649 | 4.46405 | 37035 ft | 425 kts | 235° |
| 2026-05-07 19:37 | 45.58221 | 4.39519 | 37038 ft | 425 kts | 235° |
| 2026-05-07 19:37 | 45.54796 | 4.32643 | 37039 ft | 425 kts | 235° |
| 2026-05-07 19:38 | 45.51369 | 4.25775 | 37048 ft | 425 kts | 235° |
| 2026-05-07 19:38 | 45.47927 | 4.18917 | 37035 ft | 425 kts | 235° |
| 2026-05-07 19:39 | 45.44474 | 4.12054 | 37035 ft | 425 kts | 235° |
| 2026-05-07 19:39 | 45.41034 | 4.05220 | 37037 ft | 425 kts | 234° |
| 2026-05-07 19:40 | 45.37575 | 3.98378 | 37030 ft | 426 kts | 234° |
| 2026-05-07 19:40 | 45.34118 | 3.91554 | 37030 ft | 426 kts | 234° |
| 2026-05-07 19:41 | 45.30658 | 3.84730 | 37033 ft | 425 kts | 234° |
| 2026-05-07 19:41 | 45.27196 | 3.77911 | 37034 ft | 425 kts | 234° |
| 2026-05-07 19:42 | 45.23743 | 3.71080 | 37028 ft | 426 kts | 235° |
| 2026-05-07 19:42 | 45.20365 | 3.64199 | 37024 ft | 425 kts | 236° |
| 2026-05-07 19:43 | 45.16988 | 3.57294 | 37028 ft | 426 kts | 235° |
| 2026-05-07 19:43 | 45.13596 | 3.50418 | 37012 ft | 426 kts | 235° |
| 2026-05-07 19:44 | 45.10170 | 3.43518 | 37013 ft | 426 kts | 235° |
| 2026-05-07 19:44 | 45.06766 | 3.36670 | 37015 ft | 426 kts | 235° |
| 2026-05-07 19:45 | 45.03354 | 3.29823 | 37016 ft | 426 kts | 235° |
| 2026-05-07 19:45 | 44.99933 | 3.22980 | 37014 ft | 426 kts | 235° |
| 2026-05-07 19:46 | 44.96519 | 3.16155 | 37021 ft | 426 kts | 235° |
| 2026-05-07 19:46 | 44.93103 | 3.09327 | 37011 ft | 426 kts | 235° |
| 2026-05-07 19:47 | 44.89676 | 3.02503 | 37029 ft | 426 kts | 235° |
| 2026-05-07 19:47 | 44.86238 | 2.95700 | 37024 ft | 426 kts | 234° |
| 2026-05-07 19:48 | 44.82840 | 2.88835 | 37017 ft | 427 kts | 237° |
| 2026-05-07 19:48 | 44.79635 | 2.81811 | 37012 ft | 427 kts | 238° |
| 2026-05-07 19:49 | 44.76461 | 2.74757 | 37000 ft | 427 kts | 237° |
| 2026-05-07 19:49 | 44.73236 | 2.67735 | 36999 ft | 427 kts | 237° |
| 2026-05-07 19:50 | 44.69978 | 2.60738 | 36999 ft | 428 kts | 237° |
| 2026-05-07 19:50 | 44.67247 | 2.54878 | 36992 ft | 428 kts | 237° |
| 2026-05-07 19:51 | 44.63985 | 2.47876 | 37000 ft | 428 kts | 237° |
| 2026-05-07 19:51 | 44.60726 | 2.40893 | 37009 ft | 428 kts | 237° |
| 2026-05-07 19:52 | 44.57463 | 2.33906 | 36993 ft | 428 kts | 237° |
| 2026-05-07 19:52 | 44.54181 | 2.26906 | 37002 ft | 429 kts | 236° |
| 2026-05-07 19:53 | 44.50892 | 2.19925 | 36997 ft | 430 kts | 236° |
| 2026-05-07 19:53 | 44.47589 | 2.12927 | 36990 ft | 431 kts | 236° |
| 2026-05-07 19:54 | 44.44280 | 2.05933 | 36996 ft | 431 kts | 236° |
| 2026-05-07 19:54 | 44.40969 | 1.98939 | 36983 ft | 431 kts | 236° |
| 2026-05-07 19:55 | 44.37654 | 1.91956 | 36976 ft | 431 kts | 236° |
| 2026-05-07 19:55 | 44.34326 | 1.84969 | 36986 ft | 432 kts | 236° |
| 2026-05-07 19:56 | 44.31002 | 1.77986 | 36978 ft | 432 kts | 236° |
| 2026-05-07 19:56 | 44.27676 | 1.70978 | 36982 ft | 433 kts | 237° |
| 2026-05-07 19:57 | 44.24437 | 1.63900 | 36972 ft | 433 kts | 237° |
| 2026-05-07 19:57 | 44.21192 | 1.56756 | 36969 ft | 433 kts | 237° |
| 2026-05-07 19:58 | 44.17945 | 1.49679 | 36982 ft | 433 kts | 237° |
| 2026-05-07 19:58 | 44.14672 | 1.42627 | 36984 ft | 434 kts | 237° |
| 2026-05-07 19:59 | 44.11395 | 1.35581 | 36980 ft | 434 kts | 237° |
| 2026-05-07 19:59 | 44.08120 | 1.28531 | 36972 ft | 434 kts | 237° |
| 2026-05-07 20:00 | 44.04844 | 1.21491 | 36970 ft | 434 kts | 237° |
| 2026-05-07 20:00 | 44.01565 | 1.14464 | 36983 ft | 434 kts | 237° |
| 2026-05-07 20:01 | 43.98276 | 1.07436 | 36987 ft | 434 kts | 237° |
| 2026-05-07 20:01 | 43.94985 | 1.00412 | 36980 ft | 433 kts | 237° |
| 2026-05-07 20:02 | 43.91687 | 0.93404 | 36982 ft | 433 kts | 237° |
| 2026-05-07 20:02 | 43.88507 | 0.86302 | 36975 ft | 433 kts | 239° |
| 2026-05-07 20:03 | 43.85469 | 0.79100 | 36975 ft | 433 kts | 239° |
| 2026-05-07 20:03 | 43.82426 | 0.71895 | 36982 ft | 433 kts | 239° |
| 2026-05-07 20:04 | 43.79334 | 0.64732 | 36981 ft | 433 kts | 238° |
| 2026-05-07 20:04 | 43.76228 | 0.57609 | 36984 ft | 432 kts | 238° |
| 2026-05-07 20:05 | 43.73126 | 0.50493 | 36984 ft | 432 kts | 238° |
| 2026-05-07 20:05 | 43.70033 | 0.43385 | 36983 ft | 432 kts | 238° |
| 2026-05-07 20:06 | 43.66932 | 0.36266 | 36981 ft | 432 kts | 238° |
| 2026-05-07 20:06 | 43.63817 | 0.29158 | 36973 ft | 433 kts | 238° |
| 2026-05-07 20:07 | 43.60689 | 0.22058 | 36964 ft | 433 kts | 238° |
| 2026-05-07 20:07 | 43.57543 | 0.14910 | 36961 ft | 433 kts | 238° |
| 2026-05-07 20:08 | 43.54425 | 0.07801 | 36956 ft | 433 kts | 238° |
| 2026-05-07 20:08 | 43.51289 | 0.00709 | 36966 ft | 433 kts | 238° |
| 2026-05-07 20:09 | 43.48141 | -0.06382 | 36963 ft | 434 kts | 238° |
| 2026-05-07 20:10 | 43.43419 | -0.17021 | 36960 ft | 434 kts | 238° |